GM4SUF Edderton UK current weather conditions

sailwx.info

Wind from 237 at 8 knots gusting 20

Air temperature 4.4° C
Dewpoint 1.6° C

Last reported at 2019-Dec-11 15:45 UTC.
Time now 2019-Dec-11 16:50 UTC

Location: N 57°50' W 004°11'.
View on Google Maps.

See reports from other nearby stations

  
Tides and Currents Weather Stations Pressure Air Temp Water Temp Dewpoint Dewpoint Depression Visibility Wind Speed Wind Dir Waves Ship Positions
date/time (UTC)wind fromknots sea level pressurealtimeterstation pressurevisibilityair tempwater tempwave heightnotes
2019-Dec-11 15:45 237 8 gusting 20 4.4
2019-Dec-11 15:00 224 11 gusting 20 3.9
2019-Dec-11 14:45 214 12 gusting 22 4.4
2019-Dec-11 14:00 211 8 gusting 17 4.4
2019-Dec-11 13:00 217 11 gusting 19 4.4
2019-Dec-11 12:45 221 8 gusting 15 4.4
2019-Dec-11 12:15 224 10 gusting 19 4.4
2019-Dec-11 12:00 228 6 gusting 14 4.4
2019-Dec-11 11:45 232 5 gusting 11 4.4
2019-Dec-11 11:30 223 8 gusting 18 4.4
2019-Dec-11 11:15 219 12 gusting 19 3.9
2019-Dec-11 10:45 214 12 gusting 18 3.9
2019-Dec-11 10:30 218 11 gusting 18 3.9
2019-Dec-11 10:15 204 11 gusting 18 3.9
2019-Dec-11 10:00 202 15 gusting 26 3.9
2019-Dec-11 09:45 212 10 gusting 20 3.3
2019-Dec-11 09:30 210 11 gusting 20 3.3
2019-Dec-11 09:15 215 11 gusting 21 3.3
2019-Dec-11 08:15 197 12 gusting 20 3.3
2019-Dec-11 08:00 216 11 gusting 24 3.3
2019-Dec-11 07:45 209 11 gusting 27 3.3
2019-Dec-11 07:00 214 12 gusting 22 3.9
2019-Dec-11 06:30 217 10 gusting 19 3.3
2019-Dec-11 06:15 226 8 gusting 20 3.9
2019-Dec-11 04:45 214 3 gusting 8 3.9
2019-Dec-11 04:30 275 0 gusting 4 4.4
2019-Dec-11 03:30 262 2 gusting 4 4.4
2019-Dec-11 03:15 263 4 gusting 8 4.4
2019-Dec-11 03:00 260 2 gusting 8 4.4
2019-Dec-11 02:45 239 5 gusting 15 4.4
2019-Dec-11 02:30 238 8 gusting 21 5.0
2019-Dec-11 02:00 265 9 gusting 19 5.0
2019-Dec-11 00:30 256 7 gusting 19 4.4
2019-Dec-11 00:00 265 7 gusting 17 5.0
2019-Dec-10 23:45 266 7 gusting 13 4.4
2019-Dec-10 23:30 269 10 gusting 19 5.0
2019-Dec-10 22:30 275 7 gusting 14 5.6
2019-Dec-10 21:30 243 6 gusting 13 6.1
2019-Dec-10 21:15 240 5 gusting 12 6.1
2019-Dec-10 20:45 240 8 gusting 21 5.6
2019-Dec-10 20:30 251 7 gusting 13 5.6
2019-Dec-10 20:15 243 8 gusting 18 5.0
2019-Dec-10 20:00 245 8 gusting 19 5.0
2019-Dec-10 19:45 247 10 gusting 22 6.1
2019-Dec-10 19:15 262 10 gusting 20 6.7
2019-Dec-10 19:00 264 8 gusting 19 6.1
2019-Dec-10 18:45 259 11 gusting 22 6.1
2019-Dec-10 18:15 260 8 gusting 17 6.1
2019-Dec-10 18:00 248 6 gusting 13 6.7
2019-Dec-10 17:45 257 6 gusting 12 6.7
2019-Dec-10 17:15 241 6 gusting 13 6.1
2019-Dec-10 17:00 247 8 gusting 19 6.1
2019-Dec-10 16:45 232 11 gusting 19 6.7
2019-Dec-10 16:30 253 11 gusting 19 6.7
2019-Dec-10 16:00 251 10 gusting 14 7.2
2019-Dec-10 15:30 253 6 gusting 15 7.8
2019-Dec-10 15:00 260 7 gusting 22 7.8
2019-Dec-10 14:45 272 8 gusting 19 7.8
2019-Dec-10 14:15 277 10 gusting 17 9.4
2019-Dec-10 14:00 277 13 gusting 21 10.6
2019-Dec-10 13:00 202 8 gusting 20 12.2
2019-Dec-10 12:30 213 12 gusting 19 12.2
2019-Dec-10 12:15 192 11 gusting 20 12.2
2019-Dec-10 12:00 184 5 gusting 17 12.2
2019-Dec-10 11:15 189 7 gusting 15 11.1
2019-Dec-10 11:00 176 11 gusting 17 11.1
2019-Dec-10 10:45 190 10 gusting 22 11.1
2019-Dec-10 10:15 209 10 gusting 19 10.6
2019-Dec-10 10:00 199 8 gusting 19 10.0
2019-Dec-10 09:30 179 4 gusting 11 9.4
2019-Dec-10 09:15 178 4 gusting 10 9.4
2019-Dec-10 08:30 183 6 gusting 12 8.9
2019-Dec-10 08:15 181 2 gusting 14 8.9
2019-Dec-10 07:45 176 6 gusting 13 8.3
2019-Dec-10 07:15 147 4 gusting 10 8.3
2019-Dec-10 06:45 162 4 gusting 7 7.8
2019-Dec-10 06:30 180 2 gusting 12 7.8
2019-Dec-10 06:15 162 4 gusting 11 8.3
2019-Dec-10 06:00 171 5 gusting 10 8.3
2019-Dec-10 05:45 144 5 gusting 10 8.3
2019-Dec-10 05:30 039 1 gusting 10 8.3
2019-Dec-10 05:15 111 0 gusting 12 8.3
2019-Dec-10 04:30 155 6 gusting 14 8.3
2019-Dec-10 04:15 177 6 gusting 13 8.3
2019-Dec-10 03:30 167 10 gusting 21 8.3
2019-Dec-10 03:00 197 4 gusting 17 7.8
2019-Dec-10 02:45 164 6 gusting 12 7.8
2019-Dec-10 01:45 189 4 gusting 15 7.2
2019-Dec-10 01:15 191 8 gusting 19 7.2
2019-Dec-10 01:00 192 8 gusting 20 7.2
2019-Dec-10 00:30 205 8 gusting 22 7.2
2019-Dec-10 00:15 210 5 gusting 15 6.7
2019-Dec-10 00:00 185 4 gusting 11 6.1
2019-Dec-09 23:45 075 2 gusting 8 5.6
2019-Dec-09 23:30 061 1 gusting 4 5.6
2019-Dec-09 23:00 131 2 gusting 5 5.0
2019-Dec-09 22:45 091 1 gusting 6 5.0
2019-Dec-09 22:30 075 3 gusting 11 5.0
2019-Dec-09 22:15 045 4 gusting 8 5.0
2019-Dec-09 21:30 159 5 gusting 12 4.4
2019-Dec-09 21:15 201 7 gusting 13 4.4
2019-Dec-09 20:30 165 1 gusting 2 3.9
2019-Dec-09 20:15 168 0 gusting 2 3.3
2019-Dec-09 19:15 014 0 gusting 2 2.8
2019-Dec-09 18:45 210 4 gusting 6 2.8
2019-Dec-09 18:15 223 1 gusting 5 1.7
2019-Dec-09 18:00 344 1.1
2019-Dec-09 17:45 344 0 gusting 2 1.1
2019-Dec-09 16:15 290 1 gusting 4 2.2
2019-Dec-09 16:00 251 2.2